Time;durP1;ratioP1;P1;durP2;ratioP2;P2;SDS_P1;SDS_P2;PMS_P1;PMS_P2;Temp;Humidity;BMP_temperature;BMP_pressure;BME280_temperature;BME280_humidity;BME280_pressure;Samples;Min_cycle;Max_cycle;Signal;HPM_P1;HPM_P2
2023/12/08 00:02:11;;;;;;;27.33;15.15;;;;;;;;;;5073156;28;20251;-60
2023/12/08 00:04:38;;;;;;;32.33;16.92;;;;;;;;;;5073361;28;20280;-60
2023/12/08 00:07:05;;;;;;;30.70;17.00;;;;;;;;;;5073201;28;20189;-60
2023/12/08 00:09:32;;;;;;;33.08;16.70;;;;;;;;;;5073197;28;20271;-60
2023/12/08 00:12:00;;;;;;;37.33;16.80;;;;;;;;;;5072157;28;20223;-60
2023/12/08 00:14:28;;;;;;;29.67;16.45;;;;;;;;;;5072983;28;20228;-60
2023/12/08 00:16:55;;;;;;;31.20;15.85;;;;;;;;;;5073171;28;20280;-60
2023/12/08 00:19:22;;;;;;;31.70;17.38;;;;;;;;;;5073089;28;20191;-60
2023/12/08 00:21:49;;;;;;;30.23;15.65;;;;;;;;;;5073033;28;20279;-60
2023/12/08 00:24:16;;;;;;;31.25;15.43;;;;;;;;;;5073293;28;20282;-60
2023/12/08 00:26:43;;;;;;;45.42;21.83;;;;;;;;;;5072922;28;20561;-60
2023/12/08 00:29:10;;;;;;;39.28;19.58;;;;;;;;;;5073082;28;20276;-60
2023/12/08 00:31:38;;;;;;;37.42;17.20;;;;;;;;;;5072904;28;20303;-60
2023/12/08 00:34:06;;;;;;;34.53;17.40;;;;;;;;;;5072990;28;20611;-60
2023/12/08 00:36:33;;;;;;;31.55;16.63;;;;;;;;;;5072903;28;20217;-60
2023/12/08 00:39:00;;;;;;;38.40;19.45;;;;;;;;;;5072790;28;20196;-61
2023/12/08 00:41:27;;;;;;;37.40;18.83;;;;;;;;;;5072673;28;20272;-60
2023/12/08 00:43:54;;;;;;;36.38;19.90;;;;;;;;;;5072964;28;20200;-60
2023/12/08 00:46:21;;;;;;;33.13;17.17;;;;;;;;;;5072954;28;20192;-60
2023/12/08 00:48:49;;;;;;;40.47;18.20;;;;;;;;;;5072769;28;20220;-60
2023/12/08 00:51:16;;;;;;;43.88;20.08;;;;;;;;;;5072753;28;20189;-60
2023/12/08 00:53:43;;;;;;;34.78;19.15;;;;;;;;;;5072572;28;20575;-60
2023/12/08 00:56:11;;;;;;;40.83;20.77;;;;;;;;;;5072710;28;20309;-60
2023/12/08 00:58:38;;;;;;;42.17;19.73;;;;;;;;;;5072765;28;20189;-60
2023/12/08 01:01:05;;;;;;;40.85;18.35;;;;;;;;;;5072778;28;20190;-60
2023/12/08 01:03:32;;;;;;;39.45;19.20;;;;;;;;;;5072798;28;20725;-60
2023/12/08 01:06:00;;;;;;;40.17;19.05;;;;;;;;;;5072554;28;20636;-60
2023/12/08 01:08:27;;;;;;;41.40;19.10;;;;;;;;;;5072632;28;20276;-60
2023/12/08 01:10:54;;;;;;;41.58;19.25;;;;;;;;;;5072693;28;20275;-60
2023/12/08 01:13:21;;;;;;;38.50;19.20;;;;;;;;;;5072549;28;20303;-60
2023/12/08 01:15:48;;;;;;;42.97;22.27;;;;;;;;;;5072558;28;20642;-60
2023/12/08 01:18:15;;;;;;;40.90;19.00;;;;;;;;;;5072496;28;20189;-60
2023/12/08 01:20:42;;;;;;;43.47;21.27;;;;;;;;;;5072429;28;20212;-60
2023/12/08 01:23:10;;;;;;;38.90;20.33;;;;;;;;;;5073052;28;20284;-60
2023/12/08 01:25:37;;;;;;;47.63;20.45;;;;;;;;;;5076317;28;20192;-60
2023/12/08 01:28:04;;;;;;;39.63;18.60;;;;;;;;;;5076134;28;20297;-60
2023/12/08 01:30:32;;;;;;;42.83;20.23;;;;;;;;;;5076087;28;20199;-60
2023/12/08 01:32:58;;;;;;;46.38;21.40;;;;;;;;;;5075939;28;20213;-59
2023/12/08 01:35:25;;;;;;;38.25;18.85;;;;;;;;;;5075846;28;20195;-60
2023/12/08 01:37:52;;;;;;;42.20;20.40;;;;;;;;;;5075827;28;20272;-60
2023/12/08 01:40:21;;;;;;;36.50;18.30;;;;;;;;;;5075805;28;20539;-60
2023/12/08 01:42:48;;;;;;;40.67;20.48;;;;;;;;;;5076076;28;20197;-60
2023/12/08 01:45:15;;;;;;;43.70;21.15;;;;;;;;;;5075795;28;20201;-60
2023/12/08 01:47:43;;;;;;;33.95;18.67;;;;;;;;;;5075696;28;20193;-60
2023/12/08 01:50:10;;;;;;;39.08;19.58;;;;;;;;;;5075634;28;20601;-60
2023/12/08 01:52:38;;;;;;;44.00;21.00;;;;;;;;;;5075753;28;20253;-60
2023/12/08 01:55:05;;;;;;;39.63;18.45;;;;;;;;;;5075545;28;20227;-60
2023/12/08 01:57:33;;;;;;;44.53;20.35;;;;;;;;;;5075612;28;20276;-60
2023/12/08 02:00:00;;;;;;;42.78;19.55;;;;;;;;;;5075504;28;20614;-60
2023/12/08 02:02:27;;;;;;;41.08;19.63;;;;;;;;;;5075439;28;20580;-60
2023/12/08 02:04:58;;;;;;;38.58;18.88;;;;;;;;;;5075293;28;20613;-60
2023/12/08 02:07:25;;;;;;;37.85;18.25;;;;;;;;;;5075635;28;20645;-60
2023/12/08 02:09:52;;;;;;;40.15;19.17;;;;;;;;;;5075410;28;20281;-60
2023/12/08 02:12:19;;;;;;;33.88;18.10;;;;;;;;;;5075329;28;20253;-60
2023/12/08 02:14:49;;;;;;;37.15;18.02;;;;;;;;;;5075247;28;20544;-60
2023/12/08 02:17:20;;;;;;;38.17;18.90;;;;;;;;;;5075137;28;20619;-60
2023/12/08 02:19:47;;;;;;;37.92;19.35;;;;;;;;;;5075370;28;20276;-60
2023/12/08 02:22:14;;;;;;;43.58;20.88;;;;;;;;;;5075230;28;20627;-60
2023/12/08 02:24:42;;;;;;;39.83;20.73;;;;;;;;;;5075152;28;20196;-60
2023/12/08 02:27:10;;;;;;;34.97;17.77;;;;;;;;;;5075077;28;20196;-60
2023/12/08 02:29:37;;;;;;;41.33;19.58;;;;;;;;;;5074958;28;20530;-60
2023/12/08 02:32:07;;;;;;;37.58;18.65;;;;;;;;;;5075000;28;20615;-60
2023/12/08 02:34:34;;;;;;;37.03;17.55;;;;;;;;;;5074291;28;20276;-60
2023/12/08 02:37:03;;;;;;;36.83;19.35;;;;;;;;;;5074723;28;20189;-60
2023/12/08 02:39:31;;;;;;;38.88;17.65;;;;;;;;;;5074720;28;20656;-60
2023/12/08 02:42:01;;;;;;;41.58;18.52;;;;;;;;;;5074681;28;20272;-60
2023/12/08 02:44:28;;;;;;;40.03;18.67;;;;;;;;;;5075104;28;20195;-60
2023/12/08 02:46:55;;;;;;;39.47;18.92;;;;;;;;;;5074781;28;20197;-60
2023/12/08 02:49:22;;;;;;;39.58;19.85;;;;;;;;;;5074671;28;20196;-60
2023/12/08 02:51:49;;;;;;;40.15;19.50;;;;;;;;;;5074548;28;20221;-60
2023/12/08 02:54:16;;;;;;;40.60;20.13;;;;;;;;;;5074143;28;20711;-60
2023/12/08 02:56:42;;;;;;;40.90;19.10;;;;;;;;;;5074350;28;20220;-60
2023/12/08 02:59:11;;;;;;;41.10;18.25;;;;;;;;;;5074589;28;20281;-60
2023/12/08 03:01:38;;;;;;;44.88;20.02;;;;;;;;;;5074487;28;20598;-60
2023/12/08 03:04:05;;;;;;;41.60;19.65;;;;;;;;;;5074318;28;20285;-60
2023/12/08 03:06:32;;;;;;;40.70;19.65;;;;;;;;;;5074402;28;20648;-60
2023/12/08 03:08:59;;;;;;;46.97;19.73;;;;;;;;;;5074138;28;20280;-60
2023/12/08 03:11:25;;;;;;;45.88;20.33;;;;;;;;;;5074028;28;20280;-60
2023/12/08 03:13:52;;;;;;;42.15;20.05;;;;;;;;;;5074147;28;20304;-60
2023/12/08 03:16:21;;;;;;;39.67;19.35;;;;;;;;;;5074137;28;20267;-60
2023/12/08 03:18:48;;;;;;;43.00;19.17;;;;;;;;;;5074043;28;20193;-60
2023/12/08 03:21:21;;;;;;;35.85;18.52;;;;;;;;;;5073955;28;20224;-60
2023/12/08 03:23:48;;;;;;;32.22;18.52;;;;;;;;;;5073857;28;20653;-60
2023/12/08 03:26:15;;;;;;;40.70;18.92;;;;;;;;;;5074211;28;20287;-60
2023/12/08 03:28:42;;;;;;;42.63;20.75;;;;;;;;;;5073725;28;20189;-58
2023/12/08 03:31:20;;;;;;;42.78;18.63;;;;;;;;;;5073695;28;20196;-59
2023/12/08 03:33:49;;;;;;;42.90;19.35;;;;;;;;;;5073712;28;20390;-59
2023/12/08 03:36:16;;;;;;;45.97;21.73;;;;;;;;;;5073459;28;20276;-59
2023/12/08 03:38:42;;;;;;;48.17;22.48;;;;;;;;;;5073781;28;20191;-59
2023/12/08 03:41:09;;;;;;;37.75;20.38;;;;;;;;;;5073716;28;20195;-59
2023/12/08 03:43:36;;;;;;;42.30;19.55;;;;;;;;;;5073621;28;20189;-59
2023/12/08 03:46:03;;;;;;;44.78;21.05;;;;;;;;;;5073676;28;20276;-59
2023/12/08 03:48:30;;;;;;;41.97;21.13;;;;;;;;;;5073400;28;20279;-59
2023/12/08 03:50:58;;;;;;;43.85;21.85;;;;;;;;;;5073296;28;20267;-59
2023/12/08 03:53:25;;;;;;;40.88;20.15;;;;;;;;;;5073376;28;20220;-59
2023/12/08 03:55:52;;;;;;;41.05;19.88;;;;;;;;;;5073017;28;20723;-59
2023/12/08 03:58:19;;;;;;;40.45;20.42;;;;;;;;;;5073343;28;20196;-59
2023/12/08 04:00:46;;;;;;;42.67;21.10;;;;;;;;;;5073229;28;20276;-59
2023/12/08 04:03:13;;;;;;;45.70;20.80;;;;;;;;;;5073220;28;20189;-59
2023/12/08 04:05:39;;;;;;;46.90;22.75;;;;;;;;;;5073049;28;20230;-59
2023/12/08 04:08:08;;;;;;;46.75;20.90;;;;;;;;;;5073287;28;20277;-59
2023/12/08 04:10:35;;;;;;;42.75;22.40;;;;;;;;;;5073562;28;20288;-59
2023/12/08 04:13:02;;;;;;;45.33;22.25;;;;;;;;;;5073011;28;20307;-59
2023/12/08 04:15:28;;;;;;;40.38;20.48;;;;;;;;;;5073079;28;20288;-59
2023/12/08 04:17:55;;;;;;;36.92;20.45;;;;;;;;;;5072964;28;20200;-59
2023/12/08 04:20:23;;;;;;;40.45;21.02;;;;;;;;;;5073193;28;20312;-59
2023/12/08 04:22:50;;;;;;;40.05;21.50;;;;;;;;;;5073372;28;20629;-59
2023/12/08 04:25:18;;;;;;;40.15;20.83;;;;;;;;;;5073032;28;20196;-59
2023/12/08 04:27:45;;;;;;;34.65;18.77;;;;;;;;;;5072971;28;20303;-59
2023/12/08 04:30:12;;;;;;;47.58;20.55;;;;;;;;;;5072794;28;20649;-59
2023/12/08 04:32:39;;;;;;;37.72;20.65;;;;;;;;;;5072738;28;20280;-59
2023/12/08 04:35:06;;;;;;;35.05;19.67;;;;;;;;;;5073036;28;20279;-59
2023/12/08 04:37:33;;;;;;;40.42;22.17;;;;;;;;;;5072912;28;20579;-59
2023/12/08 04:40:00;;;;;;;43.28;22.10;;;;;;;;;;5072699;28;20738;-59
2023/12/08 04:42:28;;;;;;;47.65;20.98;;;;;;;;;;5072812;28;20272;-59
2023/12/08 04:44:55;;;;;;;36.83;20.08;;;;;;;;;;5072919;28;20675;-59
2023/12/08 04:47:22;;;;;;;41.25;19.33;;;;;;;;;;5073009;28;20288;-59
2023/12/08 04:49:49;;;;;;;40.28;20.73;;;;;;;;;;5072774;28;20189;-59
2023/12/08 04:52:16;;;;;;;39.45;19.75;;;;;;;;;;5072745;28;20276;-59
2023/12/08 04:54:43;;;;;;;36.65;21.13;;;;;;;;;;5072411;28;20236;-59
2023/12/08 04:57:10;;;;;;;39.28;20.15;;;;;;;;;;5072667;28;20280;-59
2023/12/08 04:59:38;;;;;;;44.13;23.45;;;;;;;;;;5075760;28;20276;-59
2023/12/08 05:02:05;;;;;;;37.60;22.52;;;;;;;;;;5076773;28;20195;-59
2023/12/08 05:04:33;;;;;;;33.47;19.23;;;;;;;;;;5076621;28;20624;-59
2023/12/08 05:07:00;;;;;;;35.75;21.17;;;;;;;;;;5076502;28;20670;-59
2023/12/08 05:09:27;;;;;;;37.50;22.42;;;;;;;;;;5076612;28;20189;-59
2023/12/08 05:11:54;;;;;;;33.63;18.77;;;;;;;;;;5076433;28;20356;-59
2023/12/08 05:14:21;;;;;;;34.95;20.05;;;;;;;;;;5076166;28;20216;-59
2023/12/08 05:16:49;;;;;;;36.72;21.65;;;;;;;;;;5076486;28;20728;-59
2023/12/08 05:19:16;;;;;;;41.83;23.45;;;;;;;;;;5076635;28;20284;-63
2023/12/08 05:21:43;;;;;;;41.75;23.23;;;;;;;;;;5076282;28;20189;-59
2023/12/08 05:24:10;;;;;;;40.17;22.17;;;;;;;;;;5075954;28;20736;-59
2023/12/08 05:26:37;;;;;;;38.53;22.23;;;;;;;;;;5075931;28;20192;-59
2023/12/08 05:29:04;;;;;;;39.75;22.35;;;;;;;;;;5076213;28;20193;-59
2023/12/08 05:31:31;;;;;;;38.45;22.35;;;;;;;;;;5076143;28;20246;-59
2023/12/08 05:33:59;;;;;;;37.65;22.85;;;;;;;;;;5075936;28;20304;-59
2023/12/08 05:36:26;;;;;;;39.05;22.45;;;;;;;;;;5075814;28;20276;-59
2023/12/08 05:38:53;;;;;;;33.70;22.48;;;;;;;;;;5075738;28;20272;-59
2023/12/08 05:41:20;;;;;;;44.40;23.42;;;;;;;;;;5075654;28;20185;-59
2023/12/08 05:43:47;;;;;;;38.05;21.23;;;;;;;;;;5075953;28;20196;-59
2023/12/08 05:46:14;;;;;;;40.08;22.75;;;;;;;;;;5075926;28;20554;-59
2023/12/08 05:48:41;;;;;;;38.58;22.45;;;;;;;;;;5075768;28;20526;-59
2023/12/08 05:51:09;;;;;;;39.75;21.65;;;;;;;;;;5075599;28;20864;-59
2023/12/08 05:53:36;;;;;;;38.42;20.77;;;;;;;;;;5075537;28;20213;-59
2023/12/08 05:56:03;;;;;;;43.17;21.58;;;;;;;;;;5075574;28;20305;-59
2023/12/08 05:58:30;;;;;;;36.17;22.70;;;;;;;;;;5075447;28;20276;-59
2023/12/08 06:00:57;;;;;;;43.92;24.27;;;;;;;;;;5075544;28;20276;-59
2023/12/08 06:03:24;;;;;;;39.25;22.92;;;;;;;;;;5075427;28;20196;-59
2023/12/08 06:05:51;;;;;;;41.08;22.80;;;;;;;;;;5075355;28;20728;-59
2023/12/08 06:08:19;;;;;;;36.97;24.25;;;;;;;;;;5075397;28;20599;-59
2023/12/08 06:10:47;;;;;;;35.17;21.40;;;;;;;;;;5073808;28;20189;-59
2023/12/08 06:13:14;;;;;;;42.30;23.08;;;;;;;;;;5075274;28;20205;-59
2023/12/08 06:15:41;;;;;;;38.75;23.67;;;;;;;;;;5075212;28;20609;-59
2023/12/08 06:18:09;;;;;;;40.95;21.70;;;;;;;;;;5075172;28;20186;-59
2023/12/08 06:20:36;;;;;;;34.88;21.30;;;;;;;;;;5075100;28;20197;-59
2023/12/08 06:23:03;;;;;;;39.13;22.05;;;;;;;;;;5074875;28;20280;-59
2023/12/08 06:25:31;;;;;;;42.72;25.15;;;;;;;;;;5075134;28;20224;-59
2023/12/08 06:27:58;;;;;;;39.45;23.95;;;;;;;;;;5075322;28;20193;-59
2023/12/08 06:30:25;;;;;;;37.70;20.98;;;;;;;;;;5074814;28;20205;-59
2023/12/08 06:32:52;;;;;;;39.40;22.58;;;;;;;;;;5074806;28;20217;-59
2023/12/08 06:35:19;;;;;;;34.97;21.00;;;;;;;;;;5074664;28;20266;-59
2023/12/08 06:37:46;;;;;;;44.95;25.58;;;;;;;;;;5074631;28;20656;-59
2023/12/08 06:40:13;;;;;;;38.95;22.40;;;;;;;;;;5074517;28;20190;-59
2023/12/08 06:42:41;;;;;;;38.92;22.67;;;;;;;;;;5074948;28;20288;-59
2023/12/08 06:45:09;;;;;;;38.53;21.08;;;;;;;;;;5074701;28;20266;-59
2023/12/08 06:47:35;;;;;;;34.72;20.77;;;;;;;;;;5074556;28;20620;-59
2023/12/08 06:50:02;;;;;;;34.08;20.65;;;;;;;;;;5074334;28;20276;-59
2023/12/08 06:52:29;;;;;;;38.42;20.70;;;;;;;;;;5074416;28;20272;-59
2023/12/08 06:54:56;;;;;;;37.90;21.75;;;;;;;;;;5074311;28;20235;-59
2023/12/08 06:57:23;;;;;;;38.90;22.58;;;;;;;;;;5074304;28;20678;-59
2023/12/08 06:59:51;;;;;;;39.95;22.05;;;;;;;;;;5074273;28;20228;-59
2023/12/08 07:02:19;;;;;;;38.63;22.92;;;;;;;;;;5074170;28;20185;-59
2023/12/08 07:04:46;;;;;;;41.67;23.95;;;;;;;;;;5074056;28;20288;-59
2023/12/08 07:07:15;;;;;;;38.30;21.35;;;;;;;;;;5074278;28;20193;-59
2023/12/08 07:09:42;;;;;;;42.05;22.48;;;;;;;;;;5074122;28;20196;-59
2023/12/08 07:12:09;;;;;;;38.30;23.63;;;;;;;;;;5074074;28;20193;-59
2023/12/08 07:14:36;;;;;;;39.40;23.67;;;;;;;;;;5074038;28;20225;-59
2023/12/08 07:17:05;;;;;;;36.25;23.30;;;;;;;;;;5073715;28;20217;-59
2023/12/08 07:19:31;;;;;;;40.60;23.75;;;;;;;;;;5074244;28;20192;-59
2023/12/08 07:21:58;;;;;;;40.22;23.33;;;;;;;;;;5073641;28;20272;-59
2023/12/08 07:24:25;;;;;;;42.63;21.42;;;;;;;;;;5073832;28;20632;-59
2023/12/08 07:26:54;;;;;;;39.80;23.02;;;;;;;;;;5073753;28;20557;-59
2023/12/08 07:29:21;;;;;;;39.10;22.52;;;;;;;;;;5073586;28;20197;-59
2023/12/08 07:31:48;;;;;;;40.00;23.40;;;;;;;;;;5073414;28;20285;-59
2023/12/08 07:34:16;;;;;;;35.25;21.52;;;;;;;;;;5073425;28;20684;-59
2023/12/08 07:36:43;;;;;;;38.47;23.27;;;;;;;;;;5073679;28;20299;-59
2023/12/08 07:39:10;;;;;;;39.83;23.48;;;;;;;;;;5073586;28;20185;-59
2023/12/08 07:41:37;;;;;;;35.03;21.05;;;;;;;;;;5073398;28;20277;-59
2023/12/08 07:44:04;;;;;;;34.55;23.20;;;;;;;;;;5073319;28;20189;-60
2023/12/08 07:46:32;;;;;;;36.22;22.92;;;;;;;;;;5073525;28;20216;-59
2023/12/08 07:48:58;;;;;;;41.42;23.40;;;;;;;;;;5073448;28;20189;-59
2023/12/08 07:51:27;;;;;;;38.85;22.83;;;;;;;;;;5073309;28;20224;-59
2023/12/08 07:53:54;;;;;;;37.80;23.73;;;;;;;;;;5073091;28;20221;-59
2023/12/08 07:56:21;;;;;;;42.10;23.60;;;;;;;;;;5073140;28;20576;-59
2023/12/08 07:58:49;;;;;;;39.55;24.33;;;;;;;;;;5073177;28;20707;-59
2023/12/08 08:01:17;;;;;;;43.53;24.48;;;;;;;;;;5073033;28;20194;-60
2023/12/08 08:03:44;;;;;;;47.88;27.27;;;;;;;;;;5073278;28;20284;-60
2023/12/08 08:06:11;;;;;;;43.42;23.85;;;;;;;;;;5073100;28;20220;-60
2023/12/08 08:08:39;;;;;;;38.40;21.50;;;;;;;;;;5073081;28;20274;-60
2023/12/08 08:11:06;;;;;;;46.80;25.50;;;;;;;;;;5072893;28;20190;-60
2023/12/08 08:13:33;;;;;;;38.03;24.00;;;;;;;;;;5072752;28;20276;-60
2023/12/08 08:16:00;;;;;;;34.45;20.52;;;;;;;;;;5073073;28;20217;-60
2023/12/08 08:18:28;;;;;;;44.22;25.33;;;;;;;;;;5073150;28;20189;-60
2023/12/08 08:20:55;;;;;;;39.58;21.33;;;;;;;;;;5073035;28;20560;-60
2023/12/08 08:23:23;;;;;;;51.75;25.02;;;;;;;;;;5072922;28;20221;-60
2023/12/08 08:25:51;;;;;;;33.78;20.55;;;;;;;;;;5072713;28;20203;-60
2023/12/08 08:28:18;;;;;;;35.53;21.02;;;;;;;;;;5073098;28;20185;-60
2023/12/08 08:30:46;;;;;;;37.95;21.70;;;;;;;;;;5073026;28;20193;-60
2023/12/08 08:33:13;;;;;;;41.50;23.52;;;;;;;;;;5072026;28;20271;-60
2023/12/08 08:35:41;;;;;;;38.78;22.45;;;;;;;;;;5072964;28;20307;-60
2023/12/08 08:38:07;;;;;;;37.05;22.42;;;;;;;;;;5072686;28;20193;-60
2023/12/08 08:40:34;;;;;;;45.95;28.90;;;;;;;;;;5072690;28;20201;-60
2023/12/08 08:43:03;;;;;;;48.55;27.98;;;;;;;;;;5072913;28;20284;-60
2023/12/08 08:45:30;;;;;;;49.38;25.73;;;;;;;;;;5072756;28;20216;-60
2023/12/08 08:47:57;;;;;;;40.95;22.88;;;;;;;;;;5072722;28;20220;-60
2023/12/08 08:50:24;;;;;;;30.38;18.15;;;;;;;;;;5072771;28;20196;-60
2023/12/08 08:52:51;;;;;;;42.05;24.15;;;;;;;;;;5072606;28;20284;-60
2023/12/08 08:55:18;;;;;;;59.60;28.98;;;;;;;;;;5072386;28;20239;-60
2023/12/08 08:57:47;;;;;;;50.42;22.75;;;;;;;;;;5072597;28;20296;-60
2023/12/08 09:00:17;;;;;;;28.80;17.55;;;;;;;;;;5072390;28;20564;-60
2023/12/08 09:02:49;;;;;;;29.08;17.50;;;;;;;;;;5072577;28;20593;-60
2023/12/08 09:05:16;;;;;;;27.42;16.45;;;;;;;;;;5072802;28;20196;-60
2023/12/08 09:07:43;;;;;;;27.52;17.45;;;;;;;;;;5072331;28;20648;-60
2023/12/08 09:10:10;;;;;;;26.13;16.95;;;;;;;;;;5072297;28;20743;-60
2023/12/08 09:12:37;;;;;;;24.85;17.45;;;;;;;;;;5072512;28;20196;-60
2023/12/08 09:15:05;;;;;;;26.60;17.45;;;;;;;;;;5072338;28;20680;-60
2023/12/08 09:17:33;;;;;;;25.95;16.65;;;;;;;;;;5072443;28;20192;-60
2023/12/08 09:20:00;;;;;;;27.83;17.35;;;;;;;;;;5072307;28;20298;-60
2023/12/08 09:22:27;;;;;;;30.17;17.15;;;;;;;;;;5072429;28;20280;-60
2023/12/08 09:24:54;;;;;;;24.35;16.33;;;;;;;;;;5072358;28;20190;-60
2023/12/08 09:27:20;;;;;;;27.30;17.90;;;;;;;;;;5072606;28;20277;-59
2023/12/08 09:29:47;;;;;;;25.20;16.60;;;;;;;;;;5072356;28;20186;-60
2023/12/08 09:32:14;;;;;;;29.83;18.60;;;;;;;;;;5072230;28;20272;-60
2023/12/08 09:34:43;;;;;;;48.28;29.45;;;;;;;;;;5071952;28;20217;-60
2023/12/08 09:37:09;;;;;;;29.98;17.80;;;;;;;;;;5072264;28;20193;-60
2023/12/08 09:39:37;;;;;;;27.70;18.55;;;;;;;;;;5072403;28;20521;-60
2023/12/08 09:42:07;;;;;;;26.13;17.52;;;;;;;;;;5072154;28;20185;-60
2023/12/08 09:44:34;;;;;;;28.92;18.92;;;;;;;;;;5073481;28;20571;-60
2023/12/08 09:47:03;;;;;;;38.72;24.55;;;;;;;;;;5075648;28;20221;-60
2023/12/08 09:49:30;;;;;;;31.20;18.35;;;;;;;;;;5075685;28;20259;-60
2023/12/08 09:51:58;;;;;;;28.20;19.00;;;;;;;;;;5075683;28;20189;-60
2023/12/08 09:54:26;;;;;;;29.13;18.95;;;;;;;;;;5075382;28;20315;-60
2023/12/08 09:56:54;;;;;;;24.38;16.80;;;;;;;;;;5075680;28;20280;-60
2023/12/08 09:59:24;;;;;;;31.90;18.80;;;;;;;;;;5075442;28;20194;-60
2023/12/08 10:01:51;;;;;;;30.67;17.42;;;;;;;;;;5075317;28;20211;-60
2023/12/08 10:04:18;;;;;;;25.35;17.63;;;;;;;;;;5075497;28;20218;-60
2023/12/08 10:06:45;;;;;;;29.55;18.38;;;;;;;;;;5075288;28;20189;-60
2023/12/08 10:09:17;;;;;;;27.08;17.00;;;;;;;;;;5075230;28;20279;-60
2023/12/08 10:11:44;;;;;;;25.42;16.95;;;;;;;;;;5075205;28;20190;-60
2023/12/08 10:14:13;;;;;;;27.27;17.30;;;;;;;;;;5075047;28;20193;-60
2023/12/08 10:16:40;;;;;;;30.80;20.35;;;;;;;;;;5075214;28;20217;-60
2023/12/08 10:19:07;;;;;;;27.15;17.45;;;;;;;;;;5075222;28;20195;-60
2023/12/08 10:21:35;;;;;;;26.85;17.08;;;;;;;;;;5075113;28;20272;-60
2023/12/08 10:24:02;;;;;;;24.77;16.77;;;;;;;;;;5075065;28;20212;-60
2023/12/08 10:26:30;;;;;;;28.20;17.00;;;;;;;;;;5074990;28;20193;-60
2023/12/08 10:28:58;;;;;;;30.73;17.00;;;;;;;;;;5075305;28;20189;-60
2023/12/08 10:31:25;;;;;;;39.95;26.42;;;;;;;;;;5074729;28;20196;-60
2023/12/08 10:33:52;;;;;;;29.15;18.98;;;;;;;;;;5074430;28;20289;-60
2023/12/08 10:36:20;;;;;;;32.70;20.98;;;;;;;;;;5074390;28;20216;-60
2023/12/08 10:38:47;;;;;;;34.10;17.70;;;;;;;;;;5074475;28;20280;-60
2023/12/08 10:41:14;;;;;;;37.25;22.13;;;;;;;;;;5074390;28;20223;-60
2023/12/08 10:43:43;;;;;;;27.45;18.30;;;;;;;;;;5074885;28;20296;-60
2023/12/08 10:46:11;;;;;;;21.85;16.48;;;;;;;;;;5074579;28;20253;-60
2023/12/08 10:48:38;;;;;;;24.13;16.25;;;;;;;;;;5074637;28;20196;-60
2023/12/08 10:51:05;;;;;;;22.38;15.52;;;;;;;;;;5074531;28;20358;-60
2023/12/08 10:53:32;;;;;;;25.23;16.90;;;;;;;;;;5074374;28;20277;-61
2023/12/08 10:56:02;;;;;;;21.73;15.00;;;;;;;;;;5073447;28;20233;-60
2023/12/08 10:58:29;;;;;;;22.42;15.45;;;;;;;;;;5074377;28;20196;-60
2023/12/08 11:00:58;;;;;;;21.23;14.93;;;;;;;;;;5074062;28;20664;-60
2023/12/08 11:03:26;;;;;;;22.15;14.40;;;;;;;;;;5074261;28;20282;-60
2023/12/08 11:05:56;;;;;;;23.08;16.50;;;;;;;;;;5074264;28;20569;-60
2023/12/08 11:08:23;;;;;;;23.45;14.80;;;;;;;;;;5074052;28;20280;-60
2023/12/08 11:10:51;;;;;;;21.65;14.93;;;;;;;;;;5074237;28;20276;-60
2023/12/08 11:13:21;;;;;;;24.13;14.98;;;;;;;;;;5074137;28;20276;-60
2023/12/08 11:16:03;;;;;;;20.60;15.35;;;;;;;;;;5074034;28;20220;-60
2023/12/08 11:18:35;;;;;;;20.88;15.40;;;;;;;;;;5074038;28;20631;-60
2023/12/08 11:21:02;;;;;;;23.95;15.75;;;;;;;;;;5073851;28;20188;-60
2023/12/08 11:23:29;;;;;;;20.52;14.60;;;;;;;;;;5074026;28;20231;-60
2023/12/08 11:25:59;;;;;;;20.50;15.13;;;;;;;;;;5073844;28;20283;-60
2023/12/08 11:28:28;;;;;;;20.17;13.93;;;;;;;;;;5073755;28;20197;-60
2023/12/08 11:30:58;;;;;;;23.13;14.88;;;;;;;;;;5073643;28;20195;-60
2023/12/08 11:33:28;;;;;;;21.33;15.60;;;;;;;;;;5073400;28;20195;-60
2023/12/08 11:36:06;;;;;;;20.23;14.85;;;;;;;;;;5073971;28;20227;-60
2023/12/08 11:38:33;;;;;;;21.25;14.95;;;;;;;;;;5073739;28;20227;-60
2023/12/08 11:41:00;;;;;;;20.25;14.20;;;;;;;;;;5073525;28;20272;-60
2023/12/08 11:43:27;;;;;;;19.73;13.27;;;;;;;;;;5073558;28;20609;-60
2023/12/08 11:45:54;;;;;;;20.65;13.88;;;;;;;;;;5073253;28;20284;-60
2023/12/08 11:48:21;;;;;;;21.65;14.63;;;;;;;;;;5073594;28;20224;-60
2023/12/08 11:50:49;;;;;;;19.95;14.27;;;;;;;;;;5073421;28;20186;-60
2023/12/08 11:53:18;;;;;;;21.15;14.73;;;;;;;;;;5073300;28;20679;-60
2023/12/08 11:55:45;;;;;;;21.42;15.25;;;;;;;;;;5073076;28;20316;-60
2023/12/08 11:58:12;;;;;;;21.63;15.27;;;;;;;;;;5073252;28;20185;-60
2023/12/08 12:00:41;;;;;;;22.27;15.05;;;;;;;;;;5073197;28;20247;-60
2023/12/08 12:03:10;;;;;;;21.23;16.20;;;;;;;;;;5073470;28;20280;-60
2023/12/08 12:05:39;;;;;;;21.95;14.68;;;;;;;;;;5073297;28;20189;-60
2023/12/08 12:08:06;;;;;;;17.83;13.75;;;;;;;;;;5073110;28;20192;-60
2023/12/08 12:10:35;;;;;;;22.13;15.25;;;;;;;;;;5072845;28;20193;-60
2023/12/08 12:13:03;;;;;;;22.13;16.00;;;;;;;;;;5072971;28;20207;-60
2023/12/08 12:15:33;;;;;;;20.60;15.30;;;;;;;;;;5073063;28;20248;-60
2023/12/08 12:18:00;;;;;;;21.35;14.40;;;;;;;;;;5073116;28;20231;-60
2023/12/08 12:20:29;;;;;;;19.13;13.95;;;;;;;;;;5073236;28;20675;-60
2023/12/08 12:22:56;;;;;;;21.77;15.05;;;;;;;;;;5072983;28;20641;-60
2023/12/08 12:25:23;;;;;;;23.08;14.90;;;;;;;;;;5072763;28;20675;-60
2023/12/08 12:27:51;;;;;;;21.50;15.30;;;;;;;;;;5073071;28;20610;-60
2023/12/08 12:30:18;;;;;;;23.08;15.95;;;;;;;;;;5072824;28;20243;-60
2023/12/08 12:32:45;;;;;;;19.65;14.55;;;;;;;;;;5072792;28;20276;-60
2023/12/08 12:35:13;;;;;;;19.38;14.02;;;;;;;;;;5072836;28;20621;-60
2023/12/08 12:37:40;;;;;;;21.38;14.80;;;;;;;;;;5072653;28;20545;-60
2023/12/08 12:40:08;;;;;;;20.83;14.68;;;;;;;;;;5072706;28;20247;-60
2023/12/08 12:42:39;;;;;;;17.80;13.50;;;;;;;;;;5072943;28;20193;-60
2023/12/08 12:45:08;;;;;;;21.52;14.40;;;;;;;;;;5072772;28;20189;-60
2023/12/08 12:47:36;;;;;;;20.10;13.50;;;;;;;;;;5072893;28;20276;-60
2023/12/08 12:50:04;;;;;;;20.48;13.85;;;;;;;;;;5072599;28;20219;-60
2023/12/08 12:52:32;;;;;;;26.75;16.25;;;;;;;;;;5072526;28;20599;-60
2023/12/08 12:54:59;;;;;;;27.77;17.65;;;;;;;;;;5072640;28;20244;-60
2023/12/08 12:57:44;;;;;;;20.77;15.50;;;;;;;;;;5072410;28;20688;-60
2023/12/08 13:00:14;;;;;;;25.58;15.95;;;;;;;;;;5072793;28;20227;-60
2023/12/08 13:02:42;;;;;;;25.20;16.05;;;;;;;;;;5072486;28;20272;-60
2023/12/08 13:05:10;;;;;;;23.85;15.15;;;;;;;;;;5072423;28;20227;-60
2023/12/08 13:07:38;;;;;;;20.58;15.10;;;;;;;;;;5072669;28;20197;-60
2023/12/08 13:10:05;;;;;;;18.77;13.77;;;;;;;;;;5072566;28;20280;-60
2023/12/08 13:12:32;;;;;;;23.00;14.18;;;;;;;;;;5072675;28;20239;-60
2023/12/08 13:14:59;;;;;;;20.58;13.57;;;;;;;;;;5072492;28;20189;-60
2023/12/08 13:17:27;;;;;;;20.65;14.63;;;;;;;;;;5072245;28;20303;-60
2023/12/08 13:19:54;;;;;;;19.35;13.88;;;;;;;;;;5074613;28;20185;-60
2023/12/08 13:22:21;;;;;;;22.83;14.43;;;;;;;;;;5076327;28;20740;-60
2023/12/08 13:24:49;;;;;;;19.38;13.80;;;;;;;;;;5076184;28;20600;-60
2023/12/08 13:27:16;;;;;;;22.10;14.55;;;;;;;;;;5075984;28;20522;-60
2023/12/08 13:29:43;;;;;;;20.10;13.60;;;;;;;;;;5075891;28;20275;-60
2023/12/08 13:32:10;;;;;;;17.25;11.90;;;;;;;;;;5075880;28;20279;-60
2023/12/08 13:34:38;;;;;;;20.13;14.40;;;;;;;;;;5076110;28;20615;-60
2023/12/08 13:37:05;;;;;;;25.45;16.77;;;;;;;;;;5075747;28;20310;-60
2023/12/08 13:39:33;;;;;;;18.48;14.20;;;;;;;;;;5075901;28;20225;-60
2023/12/08 13:42:00;;;;;;;24.52;17.10;;;;;;;;;;5075805;28;20717;-60
2023/12/08 13:44:27;;;;;;;19.85;14.35;;;;;;;;;;5075596;28;20272;-60
2023/12/08 13:46:54;;;;;;;21.23;15.25;;;;;;;;;;5075596;28;20225;-60
2023/12/08 13:49:21;;;;;;;20.55;14.00;;;;;;;;;;5075888;28;20235;-60
2023/12/08 13:51:49;;;;;;;20.30;14.27;;;;;;;;;;5075536;28;20205;-61
2023/12/08 13:54:16;;;;;;;21.88;14.30;;;;;;;;;;5075520;28;20235;-60
2023/12/08 13:56:43;;;;;;;21.83;14.00;;;;;;;;;;5075606;28;20217;-60
2023/12/08 13:59:10;;;;;;;23.55;15.88;;;;;;;;;;5075400;28;20224;-60
2023/12/08 14:01:37;;;;;;;18.90;14.00;;;;;;;;;;5075490;28;20276;-60
2023/12/08 14:04:04;;;;;;;24.60;15.48;;;;;;;;;;5075750;28;20239;-60
2023/12/08 14:06:31;;;;;;;19.73;14.18;;;;;;;;;;5075384;28;20279;-60
2023/12/08 14:08:59;;;;;;;25.35;14.40;;;;;;;;;;5075221;28;20280;-60
2023/12/08 14:11:26;;;;;;;22.20;14.68;;;;;;;;;;5075283;28;20628;-60
2023/12/08 14:13:53;;;;;;;19.98;13.00;;;;;;;;;;5075083;28;20580;-60
2023/12/08 14:16:20;;;;;;;21.33;13.73;;;;;;;;;;5075384;28;20257;-60
2023/12/08 14:18:47;;;;;;;21.85;14.52;;;;;;;;;;5075214;28;20266;-60